Junction City, Georgia
Current Conditions -  °F | °C
As of 9:35 AM on Saturday 22 Nov 2014 (Local Time) from KOPN Reporting Station
Broken Clouds Broken Clouds  
Wind Chill: 43°   Ceiling: 6000
Heat Index: 46°   Visibility: 10mi
Dew Point: 34°   Wind: 7mph
Humidity: 62%   Direction: 80°E
Pressure: 30.47"   Gusts: NA
Location:  32.6°N, 84.46°W
Report Text: KOPN 221435Z AUTO 08006KT 10SM BKN060 08/01 A3047 RMK AO2
Loading
Personal Weather Stations






























Interactive Weather Map New forecast layout! Learn more

10-Day Weather Forecast

Advertisements
Track Severe Weather on mobile